Time;durP1;ratioP1;P1;durP2;ratioP2;P2;SDS_P1;SDS_P2;PMS_P1;PMS_P2;Temp;Humidity;BMP_temperature;BMP_pressure;BME280_temperature;BME280_humidity;BME280_pressure;Samples;Min_cycle;Max_cycle;Signal;HPM_P1;HPM_P2
2023/01/01 00:01:14;;;;;;;11.50;6.50;;;;;;;2.10;91.54;100354.87;24471;1331;3028560;-61
2023/01/01 00:03:43;;;;;;;10.30;6.50;;;;;;;1.94;91.35;100359.18;24516;1325;3052805;-63
2023/01/01 00:06:12;;;;;;;12.20;7.10;;;;;;;1.96;91.33;100351.21;24504;1322;3029989;-62
2023/01/01 00:08:41;;;;;;;12.80;7.70;;;;;;;1.75;91.45;100347.98;24568;1331;3056424;-61
2023/01/01 00:11:10;;;;;;;13.00;7.20;;;;;;;1.56;92.42;100360.08;24482;1331;3025564;-62
2023/01/01 00:13:40;;;;;;;14.20;8.00;;;;;;;1.54;92.88;100364.09;24530;1333;3049166;-62
2023/01/01 00:16:11;;;;;;;7.30;4.20;;;;;;;1.44;93.35;100369.01;24495;1324;3026328;-60
2023/01/01 00:18:40;;;;;;;11.20;6.40;;;;;;;2.05;92.77;100368.91;24565;1325;3026231;-61
2023/01/01 00:21:12;;;;;;;12.70;7.50;;;;;;;2.34;90.13;100369.28;24497;1330;3027876;-60
2023/01/01 00:23:45;;;;;;;10.60;6.20;;;;;;;2.35;89.30;100363.75;24487;1334;3056607;-61
2023/01/01 00:26:15;;;;;;;11.00;6.70;;;;;;;2.33;89.14;100362.19;24506;1323;3028605;-60
2023/01/01 00:28:45;;;;;;;14.30;7.40;;;;;;;2.03;90.14;100351.30;24534;1332;3051221;-62
2023/01/01 00:31:16;;;;;;;13.80;7.50;;;;;;;1.89;91.02;100350.60;24491;1331;3028329;-59
2023/01/01 00:33:49;;;;;;;12.40;6.70;;;;;;;1.83;91.90;100355.32;24500;1331;3068944;-60
2023/01/01 00:36:18;;;;;;;10.00;5.10;;;;;;;1.85;92.10;100351.17;24481;1331;3026855;-60
2023/01/01 00:38:47;;;;;;;15.30;7.30;;;;;;;2.53;91.33;100359.83;24542;1324;3028002;-60
2023/01/01 00:41:17;;;;;;;10.10;5.80;;;;;;;2.88;88.11;100359.38;24500;1325;3068322;-61
2023/01/01 00:43:45;;;;;;;13.40;7.10;;;;;;;3.09;86.85;100357.33;24487;1324;3026115;-61
2023/01/01 00:46:15;;;;;;;12.30;7.10;;;;;;;2.69;86.99;100355.84;24517;1337;3048733;-62
2023/01/01 00:48:44;;;;;;;11.90;7.10;;;;;;;2.42;88.38;100346.50;24480;1330;3028673;-60
2023/01/01 00:51:13;;;;;;;13.90;7.90;;;;;;;2.39;89.02;100348.64;24521;1336;3052297;-60
2023/01/01 00:53:42;;;;;;;14.60;7.90;;;;;;;2.11;90.36;100341.20;24468;1330;3025725;-62
2023/01/01 00:56:10;;;;;;;10.90;5.80;;;;;;;2.31;89.54;100331.27;24536;1337;3050798;-60
2023/01/01 00:58:39;;;;;;;10.00;5.90;;;;;;;2.70;88.78;100329.17;24513;1324;3028975;-62
2023/01/01 01:01:08;;;;;;;10.10;5.80;;;;;;;2.75;87.54;100332.92;24502;1323;3052486;-61
2023/01/01 01:03:38;;;;;;;11.10;7.10;;;;;;;2.88;86.93;100333.23;24524;1331;3028651;-61
2023/01/01 01:06:09;;;;;;;13.30;7.20;;;;;;;2.74;87.41;100349.54;24514;1324;3052492;-62
2023/01/01 01:08:40;;;;;;;12.30;7.60;;;;;;;2.73;87.02;100359.77;24497;1314;3025811;-60
2023/01/01 01:11:18;;;;;;;15.10;7.50;;;;;;;2.51;88.08;100354.70;24501;1330;3026093;-62
2023/01/01 01:13:48;;;;;;;11.00;7.00;;;;;;;2.38;88.03;100348.83;24535;1331;3052285;-60
2023/01/01 01:16:20;;;;;;;12.90;6.80;;;;;;;2.14;88.96;100350.33;24522;1338;3026667;-61
2023/01/01 01:18:50;;;;;;;10.40;5.60;;;;;;;1.89;90.69;100358.02;24530;1332;3026406;-60
2023/01/01 01:21:20;;;;;;;8.20;5.00;;;;;;;2.29;90.51;100341.15;24547;1336;3026496;-58
2023/01/01 01:23:50;;;;;;;10.70;6.40;;;;;;;2.80;88.12;100336.14;24550;1331;3026437;-61
2023/01/01 01:26:23;;;;;;;17.50;7.70;;;;;;;2.58;87.48;100335.58;24544;1324;3026464;-59
2023/01/01 01:28:52;;;;;;;;;;;;;;;2.47;88.14;100335.20;24548;1331;3054148;-61
2023/01/01 01:31:22;;;;;;;12.60;7.50;;;;;;;2.25;88.96;100327.20;24497;1322;3028825;-62
2023/01/01 01:33:52;;;;;;;11.90;7.40;;;;;;;2.00;89.87;100326.13;24512;1330;3052147;-60
2023/01/01 01:36:21;;;;;;;12.60;7.80;;;;;;;2.09;90.04;100313.74;24519;1317;3027942;-61
2023/01/01 01:38:53;;;;;;;10.50;5.90;;;;;;;1.93;90.87;100303.73;24489;1331;3057107;-58
2023/01/01 01:41:23;;;;;;;7.30;5.00;;;;;;;2.15;90.76;100297.58;24560;1322;3026049;-61
2023/01/01 01:44:00;;;;;;;10.80;7.00;;;;;;;2.69;88.81;100298.94;24466;1339;3029036;-58
2023/01/01 01:46:31;;;;;;;12.60;7.30;;;;;;;2.72;87.93;100302.34;24495;1331;3051866;-60
2023/01/01 01:49:23;;;;;;;13.90;7.50;;;;;;;2.46;88.62;100293.20;24517;1331;3026501;-59
2023/01/01 01:51:52;;;;;;;18.10;8.70;;;;;;;2.27;89.72;100280.49;24471;1331;3049331;-58
2023/01/01 01:54:22;;;;;;;11.90;7.70;;;;;;;2.11;90.31;100284.66;24525;1331;3028615;-60
2023/01/01 01:56:54;;;;;;;14.90;9.20;;;;;;;1.96;91.57;100287.29;24550;1331;3052685;-61
2023/01/01 01:59:24;;;;;;;10.20;6.40;;;;;;;1.87;92.49;100273.05;24529;1341;3025161;-61
2023/01/01 02:01:53;;;;;;;11.20;6.00;;;;;;;2.38;92.09;100260.63;24512;1324;3026073;-61
2023/01/01 02:04:22;;;;;;;10.70;6.60;;;;;;;2.80;89.12;100263.30;24515;1327;3028174;-61
2023/01/01 02:06:53;;;;;;;12.20;8.40;;;;;;;2.83;88.12;100276.05;24491;1331;3049962;-62
2023/01/01 02:09:25;;;;;;;15.10;8.40;;;;;;;2.73;88.92;100280.01;24489;1327;3028731;-61
2023/01/01 02:11:55;;;;;;;14.10;8.30;;;;;;;2.91;88.18;100275.73;24499;1331;3028263;-61
2023/01/01 02:14:24;;;;;;;12.50;8.30;;;;;;;2.72;88.60;100271.20;24473;1325;3028744;-62
2023/01/01 02:16:59;;;;;;;13.60;7.80;;;;;;;2.72;88.51;100279.50;24513;1331;3068251;-61
2023/01/01 02:19:40;;;;;;;8.60;5.60;;;;;;;2.55;89.21;100287.36;24500;1331;3049840;-61
2023/01/01 02:22:33;;;;;;;11.40;6.40;;;;;;;3.25;88.68;100274.46;24539;1331;3057240;-61
2023/01/01 02:25:10;;;;;;;12.90;7.50;;;;;;;3.48;86.13;100268.01;24462;1325;3053335;-61
2023/01/01 02:27:45;;;;;;;15.20;8.80;;;;;;;3.17;87.38;100262.85;24563;1330;3054247;-59
2023/01/01 02:30:14;;;;;;;15.80;9.20;;;;;;;2.87;88.39;100253.32;24463;1337;3051708;-59
2023/01/01 02:32:45;;;;;;;17.90;9.90;;;;;;;2.74;89.27;100242.10;24531;1331;3025915;-62
2023/01/01 02:35:34;;;;;;;17.00;10.00;;;;;;;2.65;90.45;100251.08;24523;1337;3053419;-59
2023/01/01 02:38:14;;;;;;;19.10;10.30;;;;;;;2.62;90.20;100253.88;24463;1331;3052166;-61
2023/01/01 02:40:46;;;;;;;15.00;7.40;;;;;;;2.40;92.06;100244.18;24572;1324;3052261;-60
2023/01/01 02:43:15;;;;;;;12.80;7.80;;;;;;;2.86;91.56;100239.83;24528;1334;3026310;-60
2023/01/01 02:45:44;;;;;;;15.00;9.00;;;;;;;3.14;90.12;100245.06;24533;1323;3028480;-60
2023/01/01 02:48:42;;;;;;;18.20;9.60;;;;;;;3.16;89.85;100243.99;24523;1327;3026096;-60
2023/01/01 02:51:42;;;;;;;20.20;10.50;;;;;;;2.87;90.31;100239.99;24518;1325;3049703;-61
2023/01/01 02:54:17;;;;;;;21.90;11.50;;;;;;;2.97;90.29;100237.91;24574;1323;3069241;-62
2023/01/01 02:56:47;;;;;;;21.00;10.30;;;;;;;2.64;91.68;100226.36;24477;1325;3049037;-61
2023/01/01 03:02:22;;;;;;;14.90;8.60;;;;;;;2.39;93.91;100219.27;24448;1331;3051926;-57
2023/01/01 03:05:00;;;;;;;14.10;8.40;;;;;;;3.02;93.37;100206.15;24534;1331;3052941;-61
2023/01/01 03:07:54;;;;;;;19.70;9.90;;;;;;;3.50;90.78;100208.73;24480;1331;3052075;-61
2023/01/01 03:10:45;;;;;;;16.20;9.70;;;;;;;3.46;89.86;100218.85;24549;1341;3052810;-60
2023/01/01 03:13:19;;;;;;;18.00;11.00;;;;;;;3.09;90.68;100230.27;24471;1334;3049676;-61
2023/01/01 03:15:59;;;;;;;19.60;10.80;;;;;;;2.84;92.39;100236.23;24468;1316;3068114;-60
2023/01/01 03:18:34;;;;;;;17.90;10.90;;;;;;;2.73;93.29;100238.83;24496;1332;3050279;-61
2023/01/01 03:21:04;;;;;;;11.80;6.50;;;;;;;2.58;94.29;100239.73;24553;1331;3056352;-61
2023/01/01 03:23:38;;;;;;;15.00;8.50;;;;;;;3.03;93.25;100235.23;24562;1331;3027267;-61
2023/01/01 03:26:08;;;;;;;18.70;10.60;;;;;;;3.37;91.29;100204.46;24520;1331;3052894;-61
2023/01/01 03:28:47;;;;;;;18.20;10.70;;;;;;;3.23;91.20;100199.04;24514;1325;3025647;-62
2023/01/01 03:31:18;;;;;;;19.50;11.00;;;;;;;3.05;92.08;100200.38;24519;1331;3052557;-60
2023/01/01 03:33:50;;;;;;;17.60;9.80;;;;;;;3.05;92.33;100206.10;24560;1341;3025882;-60
2023/01/01 03:36:24;;;;;;;23.80;13.30;;;;;;;2.90;92.52;100208.27;24512;1332;3025752;-61
2023/01/01 03:39:18;;;;;;;14.80;8.80;;;;;;;2.82;93.50;100191.63;24499;1331;3049833;-59
2023/01/01 03:42:25;;;;;;;15.50;9.90;;;;;;;3.26;92.93;100196.18;24513;1330;3056418;-61
2023/01/01 03:45:19;;;;;;;21.90;12.00;;;;;;;3.43;91.17;100187.75;24471;1330;3053294;-61
2023/01/01 03:47:48;;;;;;;22.40;10.80;;;;;;;3.58;89.75;100197.32;24485;1330;3051757;-61
2023/01/01 03:50:17;;;;;;;21.60;12.20;;;;;;;3.18;90.80;100205.87;24523;1315;3028816;-60
2023/01/01 03:52:46;;;;;;;20.40;11.50;;;;;;;3.02;92.08;100208.24;24453;1334;3051691;-59
2023/01/01 03:56:04;;;;;;;19.80;12.10;;;;;;;2.67;94.21;100214.02;24547;1318;3028939;-60
2023/01/01 03:58:44;;;;;;;12.90;8.40;;;;;;;2.81;94.73;100207.73;24501;1324;3056306;-61
2023/01/01 04:01:17;;;;;;;14.90;9.00;;;;;;;3.39;93.30;100202.02;24536;1325;3053473;-62
2023/01/01 04:03:46;;;;;;;21.20;11.10;;;;;;;3.47;90.90;100195.98;24467;1334;3028692;-61
2023/01/01 04:06:17;;;;;;;18.60;11.40;;;;;;;3.43;91.13;100193.61;24570;1331;3026423;-61
2023/01/01 04:08:46;;;;;;;19.00;10.80;;;;;;;3.24;91.59;100189.83;24496;1331;3028740;-61
2023/01/01 04:14:04;;;;;;;22.60;13.50;;;;;;;2.95;92.72;100195.91;24531;1331;3050491;-61
2023/01/01 04:16:34;;;;;;;14.70;7.70;;;;;;;2.88;93.72;100199.30;24459;1330;3028532;-59
2023/01/01 04:19:05;;;;;;;14.00;8.80;;;;;;;3.51;92.38;100199.51;24549;1323;3028405;-61
2023/01/01 04:21:34;;;;;;;14.20;9.00;;;;;;;4.01;89.64;100211.14;24500;1331;3051544;-62
2023/01/01 04:24:03;;;;;;;17.40;9.90;;;;;;;3.72;88.70;100203.42;24528;1315;3026442;-63
2023/01/01 04:26:33;;;;;;;18.40;11.20;;;;;;;3.47;90.19;100209.66;24532;1330;3051990;-61
2023/01/01 04:29:02;;;;;;;19.00;11.20;;;;;;;3.23;90.96;100207.00;24479;1323;3025055;-62
2023/01/01 04:31:33;;;;;;;18.80;10.40;;;;;;;2.87;93.01;100206.95;24517;1325;3051288;-61
2023/01/01 04:34:02;;;;;;;18.60;10.50;;;;;;;2.56;94.25;100203.80;24519;1331;3025951;-60
2023/01/01 04:36:31;;;;;;;16.50;8.80;;;;;;;2.45;96.21;100196.55;24526;1323;3028469;-61
2023/01/01 04:39:00;;;;;;;11.90;7.80;;;;;;;3.04;95.84;100189.69;24486;1330;3054035;-61
2023/01/01 04:41:29;;;;;;;14.00;8.50;;;;;;;3.30;92.95;100198.39;24519;1323;3029178;-59
2023/01/01 04:43:59;;;;;;;13.70;9.40;;;;;;;3.32;92.81;100193.66;24460;1324;3056741;-61
2023/01/01 04:46:28;;;;;;;14.30;9.00;;;;;;;2.80;93.27;100191.14;24504;1331;3026659;-60
2023/01/01 04:48:57;;;;;;;15.50;9.90;;;;;;;2.79;94.60;100188.05;24544;1325;3025871;-61
2023/01/01 04:51:26;;;;;;;14.80;10.10;;;;;;;2.61;95.35;100188.16;24460;1337;3056597;-62
2023/01/01 04:53:55;;;;;;;8.60;6.00;;;;;;;2.61;95.61;100188.69;24546;1331;3026052;-60
2023/01/01 04:56:24;;;;;;;10.30;6.80;;;;;;;3.04;95.03;100180.16;24496;1330;3025852;-60
2023/01/01 04:58:54;;;;;;;13.50;8.00;;;;;;;3.10;94.24;100187.48;24536;1324;3055547;-59
2023/01/01 05:01:25;;;;;;;13.60;7.20;;;;;;;3.27;92.92;100193.92;24520;1331;3026092;-60
2023/01/01 05:03:54;;;;;;;14.50;8.90;;;;;;;3.18;92.56;100198.23;24480;1331;3028707;-59
2023/01/01 05:06:24;;;;;;;16.60;10.00;;;;;;;2.93;93.37;100201.11;24493;1330;3027894;-60
2023/01/01 05:08:55;;;;;;;13.30;8.90;;;;;;;2.77;93.99;100210.73;24554;1331;3026675;-61
2023/01/01 05:11:26;;;;;;;10.90;5.90;;;;;;;2.65;95.13;100210.76;24468;1334;3027073;-61
2023/01/01 05:13:57;;;;;;;11.30;6.20;;;;;;;3.00;95.05;100204.63;24525;1324;3026314;-61
2023/01/01 05:16:34;;;;;;;12.00;7.40;;;;;;;3.55;92.55;100207.94;24504;1331;3025858;-60
2023/01/01 05:19:03;;;;;;;13.30;8.70;;;;;;;3.33;91.70;100208.87;24499;1330;3056357;-60
2023/01/01 05:21:35;;;;;;;13.20;8.50;;;;;;;3.03;92.95;100208.57;24536;1330;3026854;-61
2023/01/01 05:24:06;;;;;;;14.30;8.90;;;;;;;3.00;93.54;100203.41;24495;1331;3026427;-61
2023/01/01 05:26:37;;;;;;;15.00;8.80;;;;;;;2.83;93.95;100210.30;24484;1325;3025783;-62
2023/01/01 05:29:06;;;;;;;8.90;5.10;;;;;;;2.65;95.13;100206.95;24517;1331;3026221;-61
2023/01/01 05:31:35;;;;;;;11.60;7.30;;;;;;;3.22;94.30;100217.23;24487;1323;3028477;-64
2023/01/01 05:34:05;;;;;;;17.40;10.10;;;;;;;3.54;92.52;100207.09;24513;1323;3026174;-62
2023/01/01 05:36:37;;;;;;;14.00;8.10;;;;;;;3.47;91.70;100203.75;24551;1331;3027528;-59
2023/01/01 05:39:07;;;;;;;14.40;8.90;;;;;;;3.15;93.29;100207.30;24488;1324;3028414;-60
2023/01/01 05:41:39;;;;;;;15.80;9.30;;;;;;;2.87;94.40;100200.88;24490;1324;3026790;-59
2023/01/01 05:44:10;;;;;;;14.20;8.50;;;;;;;2.68;95.54;100202.23;24546;1331;3026669;-61
2023/01/01 05:46:39;;;;;;;7.90;5.40;;;;;;;2.43;97.67;100210.25;24509;1325;3029220;-61
2023/01/01 05:49:09;;;;;;;13.80;7.40;;;;;;;2.98;97.70;100204.48;24472;1341;3028618;-60
2023/01/01 05:51:40;;;;;;;11.10;6.90;;;;;;;3.20;95.78;100205.48;24481;1334;3026853;-60
2023/01/01 05:54:09;;;;;;;15.20;8.50;;;;;;;3.20;95.42;100197.17;24518;1323;3028784;-63
2023/01/01 05:56:38;;;;;;;13.70;8.10;;;;;;;3.01;95.73;100206.00;24491;1331;3051875;-58
2023/01/01 05:59:09;;;;;;;12.40;8.00;;;;;;;2.91;97.30;100211.88;24500;1331;3028410;-59
2023/01/01 06:01:38;;;;;;;15.50;8.80;;;;;;;2.76;97.63;100213.17;24537;1341;3026664;-60
2023/01/01 06:04:08;;;;;;;9.70;5.90;;;;;;;2.76;98.05;100224.23;24504;1316;3028965;-62
2023/01/01 06:06:37;;;;;;;8.90;5.80;;;;;;;2.99;98.18;100209.84;24525;1331;3050169;-61
2023/01/01 06:09:08;;;;;;;14.00;7.60;;;;;;;3.22;97.26;100204.57;24487;1326;3028817;-62
2023/01/01 06:11:37;;;;;;;14.60;8.10;;;;;;;2.99;97.03;100208.12;24529;1333;3026038;-60
2023/01/01 06:14:07;;;;;;;13.50;8.90;;;;;;;3.02;97.80;100210.83;24497;1332;3028542;-62
2023/01/01 06:16:36;;;;;;;16.90;9.30;;;;;;;2.86;97.90;100196.05;24471;1330;3028526;-63
2023/01/01 06:19:05;;;;;;;14.40;8.50;;;;;;;2.66;99.29;100197.44;24533;1324;3028376;-62
2023/01/01 06:21:34;;;;;;;12.20;6.40;;;;;;;2.67;99.96;100200.01;24470;1330;3055646;-61
2023/01/01 06:24:04;;;;;;;12.80;6.50;;;;;;;3.06;99.90;100200.73;24523;1324;3028428;-61
2023/01/01 06:26:33;;;;;;;11.90;7.80;;;;;;;3.40;98.82;100186.73;24516;1331;3050315;-61
2023/01/01 06:29:04;;;;;;;12.60;7.70;;;;;;;3.41;97.40;100190.55;24461;1331;3027926;-61
2023/01/01 06:31:33;;;;;;;12.80;8.30;;;;;;;3.23;97.69;100202.33;24547;1324;3028583;-61
2023/01/01 06:34:03;;;;;;;17.10;9.90;;;;;;;3.24;97.75;100201.61;24459;1333;3049435;-59
2023/01/01 06:36:32;;;;;;;16.30;8.00;;;;;;;2.94;99.16;100202.31;24493;1324;3025038;-59
2023/01/01 06:39:02;;;;;;;9.60;5.80;;;;;;;2.88;99.89;100207.27;24540;1331;3029045;-61
2023/01/01 06:41:31;;;;;;;12.70;7.50;;;;;;;3.47;99.47;100198.56;24543;1331;3049309;-61
2023/01/01 06:44:00;;;;;;;12.70;7.70;;;;;;;3.78;97.19;100198.11;24500;1323;3025218;-59
2023/01/01 06:46:33;;;;;;;13.10;8.50;;;;;;;3.69;96.60;100200.56;24481;1331;3068256;-61
2023/01/01 06:49:08;;;;;;;14.70;9.00;;;;;;;3.70;96.50;100200.90;24526;1316;3029170;-60
2023/01/01 06:51:39;;;;;;;15.50;9.70;;;;;;;3.55;96.64;100199.44;24517;1331;3056681;-59
2023/01/01 06:54:10;;;;;;;18.00;8.40;;;;;;;3.36;97.47;100205.86;24531;1331;3026207;-62
2023/01/01 06:56:39;;;;;;;11.80;7.00;;;;;;;3.31;98.26;100217.05;24512;1331;3025981;-60
2023/01/01 06:59:08;;;;;;;13.40;8.10;;;;;;;3.85;97.79;100222.75;24521;1331;3029077;-60
2023/01/01 07:01:39;;;;;;;13.10;8.10;;;;;;;4.13;94.76;100219.55;24503;1324;3052908;-60
2023/01/01 07:04:13;;;;;;;13.40;8.10;;;;;;;3.95;94.93;100207.46;24514;1331;3026656;-60
2023/01/01 07:06:42;;;;;;;14.50;8.10;;;;;;;3.79;95.64;100219.08;24445;1330;3051354;-62
2023/01/01 07:09:11;;;;;;;17.30;9.70;;;;;;;3.56;96.59;100225.06;24492;1331;3028499;-61
2023/01/01 07:11:40;;;;;;;17.30;10.00;;;;;;;3.77;96.84;100231.42;24516;1324;3028718;-62
2023/01/01 07:14:10;;;;;;;14.50;8.10;;;;;;;3.56;97.06;100231.84;24469;1329;3054078;-61
2023/01/01 07:16:39;;;;;;;14.00;7.70;;;;;;;3.79;97.04;100225.45;24533;1324;3026707;-62
2023/01/01 07:19:08;;;;;;;15.30;8.50;;;;;;;4.23;95.14;100220.71;24470;1333;3052305;-62
2023/01/01 07:21:44;;;;;;;13.60;8.00;;;;;;;4.32;94.39;100237.70;24510;1330;3026368;-61
2023/01/01 07:24:14;;;;;;;18.30;11.50;;;;;;;4.17;93.93;100216.52;24549;1340;3052149;-60
2023/01/01 07:26:44;;;;;;;14.70;9.30;;;;;;;3.56;96.03;100220.23;24487;1330;3028221;-60
2023/01/01 07:29:13;;;;;;;9.80;6.80;;;;;;;3.61;97.68;100224.80;24510;1324;3028455;-60
2023/01/01 07:31:43;;;;;;;13.60;8.00;;;;;;;3.90;97.48;100216.41;24503;1331;3052627;-59
2023/01/01 07:34:13;;;;;;;13.90;8.30;;;;;;;4.17;95.57;100216.87;24507;1331;3026949;-60
2023/01/01 07:36:42;;;;;;;12.70;8.30;;;;;;;4.00;95.54;100220.71;24497;1325;3025758;-60
2023/01/01 07:39:13;;;;;;;16.30;9.70;;;;;;;4.10;95.79;100208.70;24521;1331;3026224;-60
2023/01/01 07:41:41;;;;;;;16.70;10.00;;;;;;;3.84;96.10;100213.41;24504;1330;3028822;-58
2023/01/01 07:44:10;;;;;;;9.70;6.30;;;;;;;3.97;96.77;100215.41;24516;1330;3051084;-61
2023/01/01 07:46:40;;;;;;;10.20;6.80;;;;;;;4.40;95.91;100207.83;24510;1324;3027945;-58
2023/01/01 07:49:08;;;;;;;15.40;9.10;;;;;;;4.66;92.92;100218.88;24492;1341;3052941;-59
2023/01/01 07:51:39;;;;;;;14.30;9.40;;;;;;;4.45;92.93;100225.26;24503;1331;3028311;-63
2023/01/01 07:54:09;;;;;;;19.70;10.20;;;;;;;4.45;93.29;100206.52;24505;1334;3029032;-61
2023/01/01 07:56:38;;;;;;;18.20;10.20;;;;;;;4.28;93.80;100214.54;24481;1324;3026317;-59
2023/01/01 07:59:07;;;;;;;19.70;11.00;;;;;;;4.08;94.66;100222.78;24500;1331;3051283;-61
2023/01/01 08:01:37;;;;;;;12.70;6.40;;;;;;;3.82;96.34;100221.59;24506;1331;3028156;-62
2023/01/01 08:04:06;;;;;;;15.20;8.90;;;;;;;4.28;96.03;100216.62;24481;1320;3028392;-61
2023/01/01 08:06:36;;;;;;;22.70;10.60;;;;;;;4.64;93.91;100207.11;24527;1325;3051089;-62
2023/01/01 08:09:05;;;;;;;22.40;11.60;;;;;;;4.80;92.22;100211.56;24527;1331;3025794;-59
2023/01/01 08:11:34;;;;;;;23.40;12.30;;;;;;;4.95;90.98;100221.77;24495;1321;3028297;-61
2023/01/01 08:14:03;;;;;;;20.60;12.10;;;;;;;4.47;92.43;100224.34;24506;1331;3050922;-63
2023/01/01 08:16:32;;;;;;;21.80;12.00;;;;;;;4.23;94.17;100235.46;24485;1331;3028877;-61
2023/01/01 08:19:02;;;;;;;16.50;7.90;;;;;;;4.29;94.97;100222.66;24512;1331;3052840;-62
2023/01/01 08:21:31;;;;;;;18.90;10.00;;;;;;;4.91;93.34;100215.09;24513;1323;3028181;-60
2023/01/01 08:24:00;;;;;;;20.60;10.50;;;;;;;5.27;90.93;100208.79;24479;1335;3028410;-63
2023/01/01 08:26:31;;;;;;;19.90;11.40;;;;;;;5.12;90.29;100209.73;24517;1330;3026213;-61
2023/01/01 08:29:03;;;;;;;25.70;12.80;;;;;;;5.02;90.70;100208.05;24503;1323;3051145;-61
2023/01/01 08:31:32;;;;;;;22.40;11.80;;;;;;;5.03;90.53;100207.51;24497;1331;3026443;-60
2023/01/01 08:34:01;;;;;;;16.30;8.50;;;;;;;4.67;91.69;100203.56;24492;1338;3028971;-63
2023/01/01 08:36:31;;;;;;;15.00;8.00;;;;;;;4.70;92.25;100201.39;24505;1331;3028336;-60
2023/01/01 08:39:00;;;;;;;16.60;8.70;;;;;;;4.88;92.59;100187.60;24480;1331;3052548;-64
2023/01/01 08:41:29;;;;;;;17.70;9.70;;;;;;;5.45;90.47;100195.63;24543;1323;3025711;-62
2023/01/01 08:43:58;;;;;;;23.10;12.00;;;;;;;5.47;88.92;100198.19;24500;1330;3051453;-63
2023/01/01 08:46:27;;;;;;;18.70;10.30;;;;;;;5.32;88.87;100195.46;24541;1324;3028559;-61
2023/01/01 08:48:56;;;;;;;20.00;11.30;;;;;;;5.17;89.44;100195.52;24493;1332;3051957;-63
2023/01/01 08:51:25;;;;;;;17.90;10.80;;;;;;;4.86;91.10;100197.20;24505;1323;3028585;-63
2023/01/01 08:53:54;;;;;;;14.20;8.20;;;;;;;4.80;91.97;100200.80;24494;1324;3051749;-65
2023/01/01 08:56:23;;;;;;;11.20;6.90;;;;;;;5.41;90.89;100195.73;24524;1336;3026911;-60
2023/01/01 08:58:52;;;;;;;14.30;8.50;;;;;;;5.92;87.72;100199.69;24472;1330;3056436;-62
2023/01/01 09:01:21;;;;;;;15.70;8.80;;;;;;;5.68;87.53;100195.83;24532;1324;3029713;-61
2023/01/01 09:03:50;;;;;;;15.00;9.30;;;;;;;5.43;88.81;100191.53;24471;1335;3050401;-63
2023/01/01 09:06:19;;;;;;;18.10;8.70;;;;;;;5.17;89.76;100188.41;24507;1321;3028693;-62
2023/01/01 09:08:48;;;;;;;15.50;8.90;;;;;;;4.98;91.14;100186.98;24473;1331;3067889;-62
2023/01/01 09:11:23;;;;;;;14.40;8.00;;;;;;;4.97;91.47;100181.98;24525;1327;3026257;-62
2023/01/01 09:13:52;;;;;;;14.50;7.80;;;;;;;5.51;90.36;100178.60;24473;1331;3049657;-62
2023/01/01 09:16:20;;;;;;;14.30;8.60;;;;;;;5.62;89.18;100172.89;23835;1323;3028558;-61
2023/01/01 09:18:49;;;;;;;16.20;8.80;;;;;;;5.64;89.46;100171.98;24536;1331;3026128;-64
2023/01/01 09:21:18;;;;;;;16.80;10.10;;;;;;;5.65;88.87;100178.73;24482;1331;3025792;-65
2023/01/01 09:23:47;;;;;;;16.40;9.40;;;;;;;5.35;89.79;100172.11;24522;1331;3068541;-61
2023/01/01 09:26:16;;;;;;;11.60;6.70;;;;;;;5.07;91.93;100169.04;24512;1323;3026608;-62
2023/01/01 09:28:45;;;;;;;11.90;7.10;;;;;;;5.72;91.09;100165.84;24499;1330;3047831;-62
2023/01/01 09:31:14;;;;;;;16.20;9.40;;;;;;;6.10;88.49;100161.60;24483;1324;3027451;-63
2023/01/01 09:33:43;;;;;;;16.90;8.90;;;;;;;6.36;87.07;100159.75;24542;1331;3052947;-65
2023/01/01 09:36:26;;;;;;;13.20;8.10;;;;;;;6.21;86.98;100164.56;24468;1331;3025809;-63
2023/01/01 09:38:55;;;;;;;14.30;8.80;;;;;;;5.91;88.74;100162.14;24541;1331;3051119;-61
2023/01/01 09:41:32;;;;;;;16.30;9.10;;;;;;;5.87;88.89;100174.27;24489;1327;3028112;-62
2023/01/01 09:44:19;;;;;;;11.70;7.40;;;;;;;5.73;89.34;100173.47;24519;1331;3052609;-59
2023/01/01 09:46:48;;;;;;;13.80;8.50;;;;;;;6.25;88.33;100170.86;24492;1331;3051063;-60
2023/01/01 09:49:33;;;;;;;15.60;8.40;;;;;;;6.46;87.29;100160.11;24514;1330;3025735;-63
2023/01/01 09:52:05;;;;;;;15.70;9.70;;;;;;;6.34;87.50;100154.93;24513;1337;3053392;-59
2023/01/01 09:54:56;;;;;;;15.60;9.90;;;;;;;6.20;87.97;100147.55;24499;1335;3028739;-61
2023/01/01 09:57:27;;;;;;;18.30;10.50;;;;;;;6.19;87.95;100145.48;24517;1325;3053607;-62
2023/01/01 09:59:58;;;;;;;17.30;10.30;;;;;;;6.09;88.38;100148.42;24506;1339;3028621;-62
2023/01/01 10:03:18;;;;;;;10.60;6.20;;;;;;;6.07;88.89;100142.56;24501;1328;3028660;-60
2023/01/01 10:05:56;;;;;;;21.10;10.10;;;;;;;6.73;87.09;100144.23;24434;1335;3051190;-63
2023/01/01 10:08:31;;;;;;;31.10;14.10;;;;;;;7.19;85.39;100136.02;24545;1338;3057228;-63
2023/01/01 10:11:12;;;;;;;52.20;23.70;;;;;;;7.14;84.24;100128.91;24454;1333;3053246;-61
2023/01/01 10:13:42;;;;;;;52.30;23.20;;;;;;;6.87;85.47;100131.95;24538;1337;3052649;-61
2023/01/01 10:16:30;;;;;;;26.30;15.20;;;;;;;6.65;86.19;100128.33;24547;1329;3027241;-62
2023/01/01 10:19:27;;;;;;;44.70;18.60;;;;;;;6.26;88.61;100123.17;24524;1334;3053177;-63
2023/01/01 10:21:59;;;;;;;37.30;16.00;;;;;;;6.35;88.51;100124.81;24513;1330;3049435;-62
2023/01/01 10:24:48;;;;;;;36.90;17.00;;;;;;;7.01;86.56;100122.20;24521;1331;3026652;-61
2023/01/01 10:27:29;;;;;;;21.60;11.60;;;;;;;7.23;85.41;100109.23;24540;1336;3050437;-63
2023/01/01 10:30:00;;;;;;;15.80;9.70;;;;;;;7.22;84.86;100109.77;24539;1333;3056293;-63
2023/01/01 10:32:32;;;;;;;16.50;9.90;;;;;;;7.11;85.44;100100.44;24509;1331;3030090;-61
2023/01/01 10:35:05;;;;;;;16.70;9.90;;;;;;;6.82;86.49;100103.17;24532;1332;3025713;-62
2023/01/01 10:37:35;;;;;;;17.70;9.40;;;;;;;6.90;86.65;100099.80;24476;1331;3027040;-61
2023/01/01 10:40:14;;;;;;;10.20;6.60;;;;;;;6.82;86.89;100104.79;24509;1331;3025819;-62
2023/01/01 10:42:54;;;;;;;12.90;8.40;;;;;;;7.50;85.67;100103.36;24531;1333;3049115;-60
2023/01/01 10:45:34;;;;;;;16.90;9.10;;;;;;;7.68;83.77;100093.81;24505;1338;3068295;-62
2023/01/01 10:48:17;;;;;;;16.20;9.30;;;;;;;7.66;83.89;100090.20;24534;1331;3049936;-62
2023/01/01 10:50:51;;;;;;;18.20;10.30;;;;;;;7.32;85.10;100080.69;24500;1333;3057109;-62
2023/01/01 10:53:37;;;;;;;15.20;9.80;;;;;;;7.25;86.07;100078.50;24503;1331;3053356;-61
2023/01/01 10:56:06;;;;;;;29.30;14.80;;;;;;;7.09;86.77;100083.26;24474;1331;3054461;-62
2023/01/01 10:58:39;;;;;;;37.20;15.80;;;;;;;7.19;87.04;100081.36;24517;1324;3026000;-59
2023/01/01 11:01:17;;;;;;;32.80;15.00;;;;;;;7.69;85.68;100071.42;24513;1321;3052672;-61
2023/01/01 11:03:55;;;;;;;25.50;13.10;;;;;;;8.09;83.84;100068.95;24491;1335;3053629;-63
2023/01/01 11:06:40;;;;;;;25.30;12.10;;;;;;;7.86;83.73;100070.41;24506;1330;3051468;-63
2023/01/01 11:09:27;;;;;;;27.60;15.40;;;;;;;7.73;84.51;100071.30;24508;1335;3053080;-62
2023/01/01 11:12:00;;;;;;;23.20;13.50;;;;;;;7.58;85.45;100072.91;24483;1331;3049944;-60
2023/01/01 11:14:41;;;;;;;19.80;10.90;;;;;;;7.53;85.41;100061.75;24503;1330;3028634;-63
2023/01/01 11:17:10;;;;;;;13.30;8.40;;;;;;;7.37;86.66;100068.80;24472;1331;3049421;-62
2023/01/01 11:19:40;;;;;;;15.40;9.00;;;;;;;7.91;85.50;100070.92;24489;1324;3028711;-60
2023/01/01 11:22:34;;;;;;;16.10;10.20;;;;;;;7.99;84.16;100057.51;24523;1324;3028297;-62
2023/01/01 11:25:15;;;;;;;21.20;12.90;;;;;;;7.92;84.46;100068.80;24525;1331;3048882;-62
2023/01/01 11:27:46;;;;;;;22.00;12.60;;;;;;;7.98;83.77;100061.58;24543;1336;3057149;-60
2023/01/01 11:30:24;;;;;;;18.30;11.70;;;;;;;7.96;83.76;100051.17;24552;1330;3026584;-62
2023/01/01 11:32:59;;;;;;;18.60;11.50;;;;;;;7.56;85.93;100048.91;24578;1333;3052947;-63
2023/01/01 11:35:45;;;;;;;13.00;9.40;;;;;;;7.53;86.78;100052.67;24484;1329;3052143;-60
2023/01/01 11:38:18;;;;;;;14.70;9.40;;;;;;;8.09;85.43;100055.52;24509;1338;3052537;-60